createdAt,value
2023-05-10T00:01:51.308Z,8.56
2023-05-10T00:04:53.560Z,8.55
2023-05-10T00:07:55.511Z,8.54
2023-05-10T00:10:57.348Z,8.50
2023-05-10T00:13:59.213Z,8.49
2023-05-10T00:17:01.256Z,8.46
2023-05-10T00:20:05.951Z,8.42
2023-05-10T00:23:07.850Z,8.40
2023-05-10T00:26:09.694Z,8.32
2023-05-10T00:29:13.181Z,8.28
2023-05-10T00:32:15.196Z,8.19
2023-05-10T00:35:17.360Z,8.20
2023-05-10T00:38:19.320Z,8.17
2023-05-10T00:41:22.224Z,8.07
2023-05-10T00:44:24.381Z,8.09
2023-05-10T00:47:26.580Z,8.04
2023-05-10T00:50:28.979Z,8.04
2023-05-10T00:53:33.838Z,7.96
2023-05-10T00:56:35.912Z,7.94
2023-05-10T00:59:37.918Z,7.95
2023-05-10T01:02:40.639Z,7.96
2023-05-10T01:05:42.609Z,7.96
2023-05-10T01:08:44.600Z,7.97
2023-05-10T01:11:47.669Z,7.98
2023-05-10T01:14:49.727Z,8.00
2023-05-10T01:17:53.379Z,8.02
2023-05-10T01:21:15.985Z,8.02
2023-05-10T01:24:30.014Z,7.98
2023-05-10T01:28:01.888Z,7.97
2023-05-10T01:31:28.742Z,7.96
2023-05-10T01:34:39.249Z,7.95
2023-05-10T01:37:53.284Z,7.97
2023-05-10T01:41:15.894Z,7.99
2023-05-10T01:44:39.624Z,8.00
2023-05-10T01:47:44.381Z,8.03
2023-05-10T01:50:48.954Z,8.05
2023-05-10T01:53:59.340Z,8.10
2023-05-10T01:57:06.637Z,8.08
2023-05-10T02:00:10.895Z,8.08
2023-05-10T02:03:22.187Z,8.08
2023-05-10T02:06:26.504Z,8.10
2023-05-10T02:09:31.824Z,8.08
2023-05-10T02:12:37.123Z,8.08
2023-05-10T02:15:41.234Z,8.11
2023-05-10T02:18:43.690Z,8.13
2023-05-10T02:21:46.843Z,8.12
2023-05-10T02:24:50.974Z,8.11
2023-05-10T02:27:56.629Z,8.08
2023-05-10T02:30:58.775Z,8.03
2023-05-10T02:34:02.554Z,8.04
2023-05-10T02:37:05.724Z,8.03
2023-05-10T02:40:09.643Z,8.01
2023-05-10T02:43:15.452Z,8.04
2023-05-10T02:46:17.481Z,8.06
2023-05-10T02:49:19.734Z,8.05
2023-05-10T02:52:27.458Z,8.03
2023-05-10T02:55:34.067Z,8.03
2023-05-10T02:58:36.576Z,8.03
2023-05-10T03:01:38.520Z,8.03
2023-05-10T03:04:40.448Z,8.05
2023-05-10T03:07:42.554Z,8.08
2023-05-10T03:11:04.613Z,8.11
2023-05-10T03:14:13.345Z,8.13
2023-05-10T03:17:36.838Z,8.12
2023-05-10T03:20:50.764Z,8.16
2023-05-10T03:24:01.420Z,8.23
2023-05-10T03:27:05.524Z,8.26
2023-05-10T03:30:10.770Z,8.28
2023-05-10T03:33:14.219Z,8.35
2023-05-10T03:36:20.703Z,8.41
2023-05-10T03:39:22.760Z,8.49
2023-05-10T03:42:29.629Z,8.57
2023-05-10T03:45:31.990Z,8.64
2023-05-10T03:48:34.787Z,8.75
2023-05-10T03:51:36.710Z,8.81
2023-05-10T03:54:39.441Z,8.93
2023-05-10T03:57:41.821Z,9.00
2023-05-10T04:00:44.808Z,9.06
2023-05-10T04:03:47.215Z,9.14
2023-05-10T04:06:49.116Z,9.27
2023-05-10T04:09:51.134Z,9.44
2023-05-10T04:12:53.040Z,9.57
2023-05-10T04:15:54.912Z,9.70
2023-05-10T04:18:56.826Z,9.83
2023-05-10T04:21:59.147Z,9.96
2023-05-10T04:25:01.034Z,10.13
2023-05-10T04:28:02.905Z,10.31
2023-05-10T04:31:06.781Z,10.57
2023-05-10T04:34:08.627Z,10.81
2023-05-10T04:37:10.524Z,11.05
2023-05-10T04:40:12.875Z,11.32
2023-05-10T04:43:15.031Z,11.57
2023-05-10T04:46:16.988Z,11.74
2023-05-10T04:49:18.991Z,12.05
2023-05-10T04:52:20.958Z,12.12
2023-05-10T04:55:22.905Z,12.40
2023-05-10T04:58:24.748Z,12.65
2023-05-10T05:01:26.683Z,12.93
2023-05-10T05:04:28.679Z,13.26
2023-05-10T05:07:31.683Z,13.55
2023-05-10T05:10:33.589Z,13.58
2023-05-10T05:13:35.871Z,13.75
2023-05-10T05:16:37.823Z,13.56
2023-05-10T05:19:39.764Z,13.83
2023-05-10T05:22:41.781Z,13.92
2023-05-10T05:25:43.640Z,14.04
2023-05-10T05:28:45.590Z,14.23
2023-05-10T05:31:47.532Z,14.37
2023-05-10T05:34:49.961Z,14.72
2023-05-10T05:37:51.846Z,14.97
2023-05-10T05:40:53.764Z,15.22
2023-05-10T05:43:55.567Z,15.57
2023-05-10T05:46:57.461Z,15.63
2023-05-10T05:49:59.277Z,15.81
2023-05-10T05:53:01.196Z,15.91
2023-05-10T05:56:03.204Z,15.95
2023-05-10T05:59:05.207Z,15.75
2023-05-10T06:02:07.485Z,15.59
2023-05-10T06:05:09.864Z,15.77
2023-05-10T06:08:11.904Z,15.89
2023-05-10T06:11:13.795Z,16.06
2023-05-10T06:14:15.891Z,16.13
2023-05-10T06:17:17.772Z,16.49
2023-05-10T06:20:19.737Z,16.49
2023-05-10T06:23:21.693Z,16.41
2023-05-10T06:26:23.575Z,16.66
2023-05-10T06:29:25.440Z,16.73
2023-05-10T06:32:27.265Z,16.68
2023-05-10T06:35:30.000Z,16.42
2023-05-10T06:38:31.788Z,16.15
2023-05-10T06:41:33.667Z,15.69
2023-05-10T06:44:35.647Z,15.58
2023-05-10T06:47:39.252Z,15.28
2023-05-10T06:50:41.417Z,15.43
2023-05-10T06:53:43.275Z,15.42
2023-05-10T06:56:45.164Z,15.31
2023-05-10T06:59:47.157Z,15.34
2023-05-10T07:02:49.113Z,15.25
2023-05-10T07:05:50.958Z,15.33
2023-05-10T07:08:53.141Z,15.24
2023-05-10T07:11:55.096Z,15.16
2023-05-10T07:14:56.998Z,15.25
2023-05-10T07:17:58.993Z,15.46
2023-05-10T07:21:01.086Z,15.46
2023-05-10T07:24:03.009Z,15.58
2023-05-10T07:27:05.921Z,15.61
2023-05-10T07:30:08.484Z,15.61
2023-05-10T07:33:11.777Z,15.54
2023-05-10T07:36:13.799Z,15.41
2023-05-10T07:39:21.398Z,15.13
2023-05-10T07:42:29.077Z,14.77
2023-05-10T07:45:31.033Z,14.53
2023-05-10T07:48:32.988Z,14.41
2023-05-10T07:51:34.858Z,14.13
2023-05-10T07:54:36.748Z,13.90
2023-05-10T07:57:39.134Z,13.83
2023-05-10T08:00:42.282Z,13.71
2023-05-10T08:03:44.181Z,13.66
2023-05-10T08:06:46.139Z,13.61
2023-05-10T08:09:48.066Z,13.45
2023-05-10T08:12:49.894Z,13.27
2023-05-10T08:15:54.108Z,13.20
2023-05-10T08:18:56.523Z,13.24
2023-05-10T08:21:58.528Z,13.17
2023-05-10T08:25:00.403Z,13.13
2023-05-10T08:28:02.308Z,13.17
2023-05-10T08:31:06.400Z,13.18
2023-05-10T08:34:08.575Z,13.21
2023-05-10T08:37:11.578Z,13.34
2023-05-10T08:40:15.531Z,13.33
2023-05-10T08:43:17.480Z,13.43
2023-05-10T08:46:20.779Z,13.45
2023-05-10T08:49:23.863Z,13.51
2023-05-10T08:52:29.317Z,13.63
2023-05-10T08:55:31.671Z,13.76
2023-05-10T08:58:34.057Z,13.78
2023-05-10T09:01:38.130Z,13.88
2023-05-10T09:04:40.074Z,14.05
2023-05-10T09:07:42.541Z,14.27
2023-05-10T09:10:45.454Z,14.38
2023-05-10T09:13:51.884Z,14.57
2023-05-10T09:16:56.377Z,14.83
2023-05-10T09:20:02.785Z,14.92
2023-05-10T09:23:04.816Z,15.10
2023-05-10T09:26:07.226Z,15.14
2023-05-10T09:29:09.571Z,15.23
2023-05-10T09:32:11.684Z,15.31
2023-05-10T09:35:25.891Z,15.32
2023-05-10T09:38:29.074Z,15.33
2023-05-10T09:41:30.942Z,15.43
2023-05-10T09:44:34.062Z,15.32
2023-05-10T09:47:37.162Z,15.43
2023-05-10T09:50:39.336Z,15.34
2023-05-10T09:53:41.241Z,15.54
2023-05-10T09:56:43.531Z,15.48
2023-05-10T09:59:45.996Z,15.50
2023-05-10T10:02:55.082Z,15.67
2023-05-10T10:05:57.452Z,15.91
2023-05-10T10:08:59.335Z,15.99
2023-05-10T10:12:02.312Z,15.88
2023-05-10T10:15:05.593Z,15.97
2023-05-10T10:18:09.063Z,15.87
2023-05-10T10:21:11.266Z,15.76
2023-05-10T10:24:13.144Z,15.53
2023-05-10T10:27:27.951Z,15.36
2023-05-10T10:30:44.759Z,15.10
2023-05-10T10:33:58.213Z,14.85
2023-05-10T10:37:06.208Z,14.62
2023-05-10T10:40:27.932Z,14.46
2023-05-10T10:43:30.565Z,14.26
2023-05-10T10:46:35.395Z,13.95
2023-05-10T10:49:43.111Z,13.79
2023-05-10T10:52:47.380Z,13.99
2023-05-10T10:55:49.988Z,14.13
2023-05-10T10:58:53.571Z,14.34
2023-05-10T11:01:55.446Z,14.56
2023-05-10T11:04:57.352Z,14.74
2023-05-10T11:08:01.799Z,14.78
2023-05-10T11:11:08.362Z,14.93
2023-05-10T11:14:10.395Z,14.98
2023-05-10T11:17:44.746Z,15.34
2023-05-10T11:20:52.184Z,15.56
2023-05-10T11:23:57.650Z,15.71
2023-05-10T11:26:59.580Z,15.80
2023-05-10T11:30:02.591Z,15.81
2023-05-10T11:33:06.687Z,15.88
2023-05-10T11:36:12.738Z,15.78
2023-05-10T11:39:14.755Z,16.02
2023-05-10T11:42:16.682Z,16.07
2023-05-10T11:45:18.662Z,15.83
2023-05-10T11:48:27.723Z,15.60
2023-05-10T11:51:40.361Z,15.41
2023-05-10T11:54:56.099Z,15.23
2023-05-10T11:58:03.701Z,15.05
2023-05-10T12:01:07.717Z,14.81
2023-05-10T12:04:09.858Z,14.88
2023-05-10T12:07:12.051Z,14.90
2023-05-10T12:10:20.756Z,14.81
2023-05-10T12:13:22.778Z,14.78
2023-05-10T12:16:30.528Z,14.94
2023-05-10T12:19:39.682Z,15.03
2023-05-10T12:22:41.608Z,15.14
2023-05-10T12:25:43.540Z,15.27
2023-05-10T12:28:45.417Z,15.24
2023-05-10T12:31:57.371Z,15.40
2023-05-10T12:34:59.192Z,15.37
2023-05-10T12:38:01.069Z,15.48
2023-05-10T12:41:05.285Z,15.71
2023-05-10T12:44:07.145Z,15.73
2023-05-10T12:47:09.116Z,15.87
2023-05-10T12:50:11.488Z,15.87
2023-05-10T12:53:16.454Z,15.97
2023-05-10T12:56:18.301Z,15.94
2023-05-10T12:59:20.200Z,15.89
2023-05-10T13:02:24.013Z,15.94
2023-05-10T13:05:25.936Z,15.66
2023-05-10T13:08:27.844Z,15.43
2023-05-10T13:11:29.719Z,15.35
2023-05-10T13:14:32.250Z,15.32
2023-05-10T13:17:34.350Z,15.13
2023-05-10T13:20:36.236Z,15.18
2023-05-10T13:23:38.034Z,15.13
2023-05-10T13:26:39.805Z,14.97
2023-05-10T13:29:43.741Z,15.03
2023-05-10T13:32:46.778Z,15.02
2023-05-10T13:35:48.567Z,14.99
2023-05-10T13:38:50.347Z,15.05
2023-05-10T13:41:53.785Z,15.08
2023-05-10T13:44:55.821Z,14.97
2023-05-10T13:47:58.381Z,14.85
2023-05-10T13:51:00.261Z,14.88
2023-05-10T13:54:02.968Z,14.83
2023-05-10T13:57:05.498Z,14.64
2023-05-10T14:00:08.680Z,14.36
2023-05-10T14:03:12.390Z,14.30
2023-05-10T14:06:14.717Z,14.12
2023-05-10T14:09:17.581Z,13.88
2023-05-10T14:12:19.717Z,13.92
2023-05-10T14:15:21.876Z,13.91
2023-05-10T14:18:23.756Z,13.89
2023-05-10T14:21:25.752Z,13.95
2023-05-10T14:24:27.552Z,14.04
2023-05-10T14:27:29.452Z,14.01
2023-05-10T14:30:33.780Z,13.96
2023-05-10T14:33:35.658Z,13.91
2023-05-10T14:36:37.442Z,13.83
2023-05-10T14:39:39.321Z,13.91
2023-05-10T14:42:41.387Z,13.86
2023-05-10T14:45:43.154Z,13.91
2023-05-10T14:48:45.020Z,13.88
2023-05-10T14:51:46.863Z,13.78
2023-05-10T14:54:48.674Z,13.76
2023-05-10T14:57:51.662Z,13.75
2023-05-10T15:00:53.700Z,13.70
2023-05-10T15:03:56.278Z,13.68
2023-05-10T15:07:00.381Z,13.80
2023-05-10T15:10:02.474Z,13.86
2023-05-10T15:13:05.447Z,13.93
2023-05-10T15:16:07.559Z,13.91
2023-05-10T15:19:09.437Z,13.85
2023-05-10T15:22:11.392Z,13.96
2023-05-10T15:25:14.197Z,13.94
2023-05-10T15:28:15.984Z,13.90
2023-05-10T15:31:17.810Z,13.94
2023-05-10T15:34:19.982Z,13.85
2023-05-10T15:37:23.829Z,13.83
2023-05-10T15:40:25.667Z,13.54
2023-05-10T15:43:27.588Z,13.48
2023-05-10T15:46:30.424Z,13.34
2023-05-10T15:49:32.410Z,13.13
2023-05-10T15:52:34.509Z,13.12
2023-05-10T15:55:37.496Z,13.09
2023-05-10T15:58:39.797Z,13.10
2023-05-10T16:01:41.767Z,13.00
2023-05-10T16:04:44.747Z,13.05
2023-05-10T16:07:46.938Z,13.03
2023-05-10T16:10:49.829Z,12.98
2023-05-10T16:13:52.061Z,12.99
2023-05-10T16:16:54.061Z,12.94
2023-05-10T16:19:56.145Z,12.91
2023-05-10T16:23:03.096Z,12.68
2023-05-10T16:26:05.012Z,12.48
2023-05-10T16:29:08.487Z,12.45
2023-05-10T16:32:10.592Z,12.44
2023-05-10T16:35:12.358Z,12.37
2023-05-10T16:38:15.158Z,12.40
2023-05-10T16:41:17.072Z,12.34
2023-05-10T16:44:20.595Z,12.27
2023-05-10T16:47:23.469Z,12.24
2023-05-10T16:50:25.357Z,12.22
2023-05-10T16:53:28.940Z,12.23
2023-05-10T16:56:30.917Z,12.21
2023-05-10T16:59:32.854Z,12.19
2023-05-10T17:02:35.885Z,12.16
2023-05-10T17:05:38.300Z,12.11
2023-05-10T17:08:40.285Z,12.13
2023-05-10T17:11:42.322Z,12.02
2023-05-10T17:14:44.208Z,11.93
2023-05-10T17:17:47.306Z,11.90
2023-05-10T17:20:50.584Z,11.88
2023-05-10T17:23:52.493Z,11.85
2023-05-10T17:26:54.333Z,11.83
2023-05-10T17:29:59.247Z,11.78
2023-05-10T17:33:01.872Z,11.74
2023-05-10T17:36:03.956Z,11.65
2023-05-10T17:39:06.322Z,11.60
2023-05-10T17:42:08.338Z,11.59
2023-05-10T17:45:11.231Z,11.51
2023-05-10T17:48:13.509Z,11.43
2023-05-10T17:51:15.464Z,11.35
2023-05-10T17:54:17.374Z,11.35
2023-05-10T17:57:20.430Z,11.32
2023-05-10T18:00:22.385Z,11.29
2023-05-10T18:03:24.503Z,11.26
2023-05-10T18:06:26.514Z,11.23
2023-05-10T18:09:28.729Z,11.21
2023-05-10T18:12:30.598Z,11.23
2023-05-10T18:15:33.509Z,11.25
2023-05-10T18:18:35.893Z,11.29
2023-05-10T18:21:38.652Z,11.26
2023-05-10T18:24:40.527Z,11.24
2023-05-10T18:27:42.497Z,11.19
2023-05-10T18:30:44.509Z,11.15
2023-05-10T18:33:46.751Z,11.09
2023-05-10T18:36:48.724Z,11.02
2023-05-10T18:39:50.938Z,10.97
2023-05-10T18:42:54.007Z,10.90
2023-05-10T18:45:55.897Z,10.81
2023-05-10T18:48:57.769Z,10.67
2023-05-10T18:51:59.680Z,10.51
2023-05-10T18:55:01.545Z,10.40
2023-05-10T18:58:03.432Z,10.25
2023-05-10T19:01:05.401Z,10.20
2023-05-10T19:04:08.673Z,10.16
2023-05-10T19:07:11.127Z,10.12
2023-05-10T19:10:13.775Z,10.03
2023-05-10T19:13:15.682Z,9.95
2023-05-10T19:16:20.078Z,9.88
2023-05-10T19:19:23.587Z,9.81
2023-05-10T19:22:44.968Z,9.77
2023-05-10T19:25:48.717Z,9.65
2023-05-10T19:28:51.771Z,9.51
2023-05-10T19:31:53.901Z,9.41
2023-05-10T19:34:55.772Z,9.35
2023-05-10T19:37:57.614Z,9.34
2023-05-10T19:40:59.608Z,9.32
2023-05-10T19:44:01.562Z,9.30
2023-05-10T19:47:05.332Z,9.26
2023-05-10T19:50:07.861Z,9.24
2023-05-10T19:53:09.750Z,9.20
2023-05-10T19:56:12.835Z,9.16
2023-05-10T19:59:15.590Z,9.13
2023-05-10T20:02:17.481Z,9.09
2023-05-10T20:05:19.618Z,9.04
2023-05-10T20:08:21.661Z,9.01
2023-05-10T20:11:23.562Z,8.96
2023-05-10T20:14:25.494Z,8.95
2023-05-10T20:17:27.300Z,8.91
2023-05-10T20:20:29.569Z,8.90
2023-05-10T20:23:31.586Z,8.85
2023-05-10T20:26:33.374Z,8.81
2023-05-10T20:29:35.175Z,8.76
2023-05-10T20:32:38.021Z,8.73
2023-05-10T20:35:39.767Z,8.67
2023-05-10T20:38:41.745Z,8.67
2023-05-10T20:41:43.889Z,8.55
2023-05-10T20:44:45.791Z,8.51
2023-05-10T20:47:47.738Z,8.47
2023-05-10T20:50:49.768Z,8.41
2023-05-10T20:53:51.916Z,8.35
2023-05-10T20:56:53.831Z,8.34
2023-05-10T20:59:55.734Z,8.30
2023-05-10T21:03:54.088Z,8.22
2023-05-10T21:07:14.379Z,8.15
2023-05-10T21:10:16.561Z,8.10
2023-05-10T21:13:18.682Z,8.16
2023-05-10T21:16:20.604Z,8.18
2023-05-10T21:19:22.422Z,8.22
2023-05-10T21:22:24.313Z,8.28
2023-05-10T21:25:26.194Z,8.31
2023-05-10T21:28:28.078Z,8.30
2023-05-10T21:32:14.994Z,8.39
2023-05-10T21:35:16.922Z,8.44
2023-05-10T21:38:18.781Z,8.42
2023-05-10T21:41:21.803Z,8.44
2023-05-10T21:44:23.496Z,8.46
2023-05-10T21:47:25.331Z,8.52
2023-05-10T21:50:27.605Z,8.56
2023-05-10T21:53:29.504Z,8.58
2023-05-10T21:56:31.409Z,8.59
2023-05-10T21:59:33.520Z,8.61
2023-05-10T22:02:35.564Z,8.62
2023-05-10T22:05:37.625Z,8.61
2023-05-10T22:08:39.501Z,8.58
2023-05-10T22:11:41.371Z,8.52
2023-05-10T22:14:43.341Z,8.59
2023-05-10T22:17:45.194Z,8.58
2023-05-10T22:20:47.523Z,8.54
2023-05-10T22:23:49.452Z,8.59
2023-05-10T22:26:54.481Z,8.61
2023-05-10T22:29:56.708Z,8.51
2023-05-10T22:32:59.750Z,8.54
2023-05-10T22:36:01.623Z,8.55
2023-05-10T22:39:03.522Z,8.60
2023-05-10T22:42:05.383Z,8.63
2023-05-10T22:45:08.208Z,8.61
2023-05-10T22:48:10.275Z,8.61
2023-05-10T22:51:12.168Z,8.65
2023-05-10T22:54:14.004Z,8.63
2023-05-10T22:57:16.480Z,8.57
2023-05-10T23:00:18.805Z,8.62
2023-05-10T23:03:20.875Z,8.64
2023-05-10T23:06:22.702Z,8.63
2023-05-10T23:09:24.583Z,8.64
2023-05-10T23:12:26.470Z,8.63
2023-05-10T23:15:28.340Z,8.63
2023-05-10T23:18:30.178Z,8.57
2023-05-10T23:21:32.690Z,8.59
2023-05-10T23:24:34.549Z,8.52
2023-05-10T23:27:36.461Z,8.55
2023-05-10T23:30:38.328Z,8.57
2023-05-10T23:33:40.216Z,8.59
2023-05-10T23:36:42.369Z,8.58
2023-05-10T23:39:44.849Z,8.58
2023-05-10T23:42:47.146Z,8.54
2023-05-10T23:45:56.287Z,8.54
2023-05-10T23:48:58.087Z,8.54
2023-05-10T23:51:59.932Z,8.55
2023-05-10T23:55:01.889Z,8.54
2023-05-10T23:58:03.758Z,8.55
